Time;durP1;ratioP1;P1;durP2;ratioP2;P2;SDS_P1;SDS_P2;PMS_P1;PMS_P2;Temp;Humidity;BMP_temperature;BMP_pressure;BME280_temperature;BME280_humidity;BME280_pressure;Samples;Min_cycle;Max_cycle;Signal;HPM_P1;HPM_P2
2021/05/20 00:00:56;;;;;;;;;;;;;;;;;;4404014;32;19954;-83
2021/05/20 00:03:25;;;;;;;;;;;;;;;;;;4407586;32;19964;-88
2021/05/20 00:05:53;;;;;;;;;;;;;;;;;;4415550;32;20110;-85
2021/05/20 00:08:22;;;;;;;;;;;;;;;;;;4409752;32;20027;-85
2021/05/20 00:10:50;;;;;;;;;;;;;;;;;;4418570;32;19954;-84
2021/05/20 00:13:18;;;;;;;;;;;;;;;;;;4443416;32;19953;-87
2021/05/20 00:15:49;;;;;;;;;;;;;;;;;;4410203;32;19965;-83
2021/05/20 00:18:18;;;;;;;;;;;;;;;;;;4429073;32;20118;-87
2021/05/20 00:20:48;;;;;;;;;;;;;;;;;;4432359;32;19964;-85
2021/05/20 00:23:18;;;;;;;;;;;;;;;;;;4419612;32;19953;-85
2021/05/20 00:25:47;;;;;;;;;;;;;;;;;;4425104;32;20083;-86
2021/05/20 00:28:18;;;;;;;;;;;;;;;;;;4407750;32;20338;-84
2021/05/20 00:30:48;;;;;;;;;;;;;;;;;;4411266;32;19991;-85
2021/05/20 00:33:19;;;;;;;;;;;;;;;;;;4422441;32;19962;-85
2021/05/20 00:35:50;;;;;;;;;;;;;;;;;;4419013;32;20438;-83
2021/05/20 00:38:21;;;;;;;;;;;;;;;;;;4431049;32;20068;-84
2021/05/20 00:40:49;;;;;;;;;;;;;;;;;;4422311;32;20336;-84
2021/05/20 00:43:17;;;;;;;;;;;;;;;;;;4426101;32;20403;-84
2021/05/20 00:45:46;;;;;;;;;;;;;;;;;;4418144;32;20332;-86
2021/05/20 00:48:17;;;;;;;;;;;;;;;;;;4408367;32;21363;-84
2021/05/20 00:50:48;;;;;;;;;;;;;;;;;;4404293;32;20348;-87
2021/05/20 00:53:18;;;;;;;;;;;;;;;;;;4433842;32;21304;-84
2021/05/20 00:55:50;;;;;;;;;;;;;;;;;;4428386;32;20012;-86
2021/05/20 00:58:20;;;;;;;;;;;;;;;;;;4423941;32;20017;-84
2021/05/20 01:00:51;;;;;;;;;;;;;;;;;;4424722;32;19957;-88
2021/05/20 01:03:22;;;;;;;;;;;;;;;;;;4411063;32;19996;-84
2021/05/20 01:05:56;;;;;;;;;;;;;;;;;;4412203;32;19982;-87
2021/05/20 01:08:27;;;;;;;;;;;;;;;;;;4421032;32;19958;-86
2021/05/20 01:10:56;;;;;;;;;;;;;;;;;;4424904;32;20040;-85
2021/05/20 01:13:27;;;;;;;;;;;;;;;;;;4418194;32;20528;-85
2021/05/20 01:15:57;;;;;;;;;;;;;;;;;;4420714;32;20005;-85
2021/05/20 01:18:28;;;;;;;;;;;;;;;;;;4422825;32;20009;-86
2021/05/20 01:20:58;;;;;;;;;;;;;;;;;;4419893;32;19953;-82
2021/05/20 01:23:27;;;;;;;;;;;;;;;;;;4419247;32;20381;-84
2021/05/20 01:25:58;;;;;;;;;;;;;;;;;;4415632;32;19957;-88
2021/05/20 01:28:30;;;;;;;;;;;;;;;;;;4418293;32;19965;-86
2021/05/20 01:30:59;;;;;;;;;;;;;;;;;;4407809;32;19965;-87
2021/05/20 01:33:30;;;;;;;;;;;;;;;;;;4440103;32;19957;-87
2021/05/20 01:35:59;;;;;;;;;;;;;;;;;;4408081;32;20348;-84
2021/05/20 01:41:10;;;;;;;;;;;;;;;;;;4434023;32;20409;-87
2021/05/20 01:43:41;;;;;;;;;;;;;;;;;;4432975;32;20342;-83
2021/05/20 01:46:12;;;;;;;;;;;;;;;;;;4408918;32;19958;-87
2021/05/20 01:48:43;;;;;;;;;;;;;;;;;;4417509;32;19997;-88
2021/05/20 01:51:14;;;;;;;;;;;;;;;;;;4405284;32;19954;-85
2021/05/20 01:53:44;;;;;;;;;;;;;;;;;;4413504;32;20036;-87
2021/05/20 01:56:15;;;;;;;;;;;;;;;;;;4419271;32;19962;-85
2021/05/20 01:58:46;;;;;;;;;;;;;;;;;;4414048;32;19982;-86
2021/05/20 02:01:17;;;;;;;;;;;;;;;;;;4410014;32;19954;-84
2021/05/20 02:03:45;;;;;;;;;;;;;;;;;;4413954;32;19950;-86
2021/05/20 02:06:13;;;;;;;;;;;;;;;;;;4401193;32;20009;-84
2021/05/20 02:08:44;;;;;;;;;;;;;;;;;;4412411;32;19992;-86
2021/05/20 02:11:13;;;;;;;;;;;;;;;;;;4391621;32;20649;-87
2021/05/20 02:13:41;;;;;;;;;;;;;;;;;;4413988;32;20034;-85
2021/05/20 02:16:11;;;;;;;;;;;;;;;;;;4391178;32;20041;-87
2021/05/20 02:18:42;;;;;;;;;;;;;;;;;;4416794;32;19966;-87
2021/05/20 02:21:13;;;;;;;;;;;;;;;;;;4411098;32;20540;-87
2021/05/20 02:23:44;;;;;;;;;;;;;;;;;;4401999;32;20076;-88
2021/05/20 02:26:15;;;;;;;;;;;;;;;;;;4429692;32;19960;-90
2021/05/20 02:28:46;;;;;;;;;;;;;;;;;;4414504;32;19969;-86
2021/05/20 02:31:14;;;;;;;;;;;;;;;;;;4411951;32;19994;-86
2021/05/20 02:33:43;;;;;;;;;;;;;;;;;;4410736;32;19976;-87
2021/05/20 02:36:13;;;;;;;;;;;;;;;;;;4423833;32;19984;-90
2021/05/20 02:38:41;;;;;;;;;;;;;;;;;;4410393;32;19958;-86
2021/05/20 02:41:12;;;;;;;;;;;;;;;;;;4403348;32;20392;-86
2021/05/20 02:43:40;;;;;;;;;;;;;;;;;;4413683;32;20028;-84
2021/05/20 02:46:11;;;;;;;;;;;;;;;;;;4421202;32;19950;-89
2021/05/20 02:48:42;;;;;;;;;;;;;;;;;;4422510;32;19994;-90
2021/05/20 02:51:13;;;;;;;;;;;;;;;;;;4416358;32;20028;-85
2021/05/20 02:53:45;;;;;;;;;;;;;;;;;;4412410;32;19986;-85
2021/05/20 02:56:13;;;;;;;;;;;;;;;;;;4415620;32;20475;-89
2021/05/20 02:58:43;;;;;;;;;;;;;;;;;;4418269;32;20335;-89
2021/05/20 03:01:12;;;;;;;;;;;;;;;;;;4398210;32;20034;-85
2021/05/20 03:03:44;;;;;;;;;;;;;;;;;;4415934;32;19999;-86
2021/05/20 03:06:14;;;;;;;;;;;;;;;;;;4413246;32;20543;-86
2021/05/20 03:08:45;;;;;;;;;;;;;;;;;;4425169;32;20019;-84
2021/05/20 03:11:17;;;;;;;;;;;;;;;;;;4441247;27;19947;-96
2021/05/20 03:13:53;;;;;;;;;;;;;;;;;;4398221;32;19970;-95
2021/05/20 03:16:48;;;;;;;;;;;;;;;;;;4396723;32;19996;-96
2021/05/20 03:19:22;;;;;;;;;;;;;;;;;;4394031;32;19964;-96
2021/05/20 03:22:06;;;;;;;;;;;;;;;;;;4392875;32;19999;-96
2021/05/20 03:24:45;;;;;;;;;;;;;;;;;;4387123;32;19973;-96
2021/05/20 03:27:27;;;;;;;;;;;;;;;;;;4388184;32;19954;-96
2021/05/20 03:30:38;;;;;;;;;;;;;;;;;;4393388;32;20344;-96
2021/05/20 03:33:34;;;;;;;;;;;;;;;;;;;;;
2021/05/20 03:36:41;;;;;;;;;;;;;;;;;;4382018;32;20001;-96
2021/05/20 03:39:32;;;;;;;;;;;;;;;;;;4395874;32;19968;-96
2021/05/20 03:42:26;;;;;;;;;;;;;;;;;;4393981;32;20315;-96
2021/05/20 03:45:45;;;;;;;;;;;;;;;;;;4401336;32;19965;-96
2021/05/20 03:48:54;;;;;;;;;;;;;;;;;;4390586;32;19945;-96
2021/05/20 03:51:46;;;;;;;;;;;;;;;;;;4392718;32;20002;-96
2021/05/20 03:54:42;;;;;;;;;;;;;;;;;;4388127;32;19996;-96
2021/05/20 03:57:40;;;;;;;;;;;;;;;;;;4388974;32;19965;-96
2021/05/20 04:00:23;;;;;;;;;;;;;;;;;;4380806;32;19966;-96
2021/05/20 04:03:29;;;;;;;;;;;;;;;;;;4390601;32;19962;-96
2021/05/20 04:06:15;;;;;;;;;;;;;;;;;;4384493;32;19965;-96
2021/05/20 04:09:10;;;;;;;;;;;;;;;;;;4373101;32;19988;-96
2021/05/20 04:12:09;;;;;;;;;;;;;;;;;;4389446;32;19954;-96
2021/05/20 04:14:46;;;;;;;;;;;;;;;;;;4385379;32;19995;-96
2021/05/20 04:17:35;;;;;;;;;;;;;;;;;;4393738;32;19965;-96
2021/05/20 04:20:34;;;;;;;;;;;;;;;;;;4375154;32;19981;-96
2021/05/20 04:23:08;;;;;;;;;;;;;;;;;;4395473;32;19972;-96
2021/05/20 04:25:39;;;;;;;;;;;;;;;;;;4401470;32;19950;-96
2021/05/20 04:28:30;;;;;;;;;;;;;;;;;;4398479;32;20039;-96
2021/05/20 04:31:14;;;;;;;;;;;;;;;;;;4390930;32;19967;-96
2021/05/20 04:34:04;;;;;;;;;;;;;;;;;;4397452;32;20002;-96
2021/05/20 04:37:07;;;;;;;;;;;;;;;;;;4375695;32;19950;-96
2021/05/20 04:39:38;;;;;;;;;;;;;;;;;;4392465;32;19959;-96
2021/05/20 04:42:08;;;;;;;;;;;;;;;;;;4390673;32;19959;-96
2021/05/20 04:44:47;;;;;;;;;;;;;;;;;;4390237;32;20048;-96
2021/05/20 04:47:24;;;;;;;;;;;;;;;;;;4387899;32;20327;-96
2021/05/20 04:50:12;;;;;;;;;;;;;;;;;;4380465;32;19982;-96
2021/05/20 04:52:44;;;;;;;;;;;;;;;;;;4390897;32;19950;-96
2021/05/20 04:55:16;;;;;;;;;;;;;;;;;;4382531;32;19972;-96
2021/05/20 04:57:49;;;;;;;;;;;;;;;;;;4386742;32;19954;-96
2021/05/20 05:00:24;;;;;;;;;;;;;;;;;;4388160;32;19950;-96
2021/05/20 05:02:55;;;;;;;;;;;;;;;;;;4384780;32;19970;-96
2021/05/20 05:05:39;;;;;;;;;;;;;;;;;;4399178;32;19955;-96
2021/05/20 05:08:27;;;;;;;;;;;;;;;;;;4399413;32;19957;-96
2021/05/20 05:11:18;;;;;;;;;;;;;;;;;;4413148;32;19973;-96
2021/05/20 05:14:08;;;;;;;;;;;;;;;;;;4404079;32;19968;-95
2021/05/20 05:16:53;;;;;;;;;;;;;;;;;;4407593;32;19968;-96
2021/05/20 05:19:50;;;;;;;;;;;;;;;;;;4398324;32;20236;-96
2021/05/20 05:23:01;;;;;;;;;;;;;;;;;;4376476;32;19958;-96
2021/05/20 05:26:15;;;;;;;;;;;;;;;;;;4356101;32;19955;-96
2021/05/20 05:29:11;;;;;;;;;;;;;;;;;;4378895;32;20691;-95
2021/05/20 05:32:04;;;;;;;;;;;;;;;;;;4374712;32;20014;-96
2021/05/20 05:35:03;;;;;;;;;;;;;;;;;;4380155;32;19982;-96
2021/05/20 05:37:33;;;;;;;;;;;;;;;;;;4359668;32;19950;-96
2021/05/20 05:40:15;;;;;;;;;;;;;;;;;;4388323;32;19970;-96
2021/05/20 05:42:50;;;;;;;;;;;;;;;;;;4366035;32;19988;-96
2021/05/20 05:45:34;;;;;;;;;;;;;;;;;;4375784;32;19997;-96
2021/05/20 05:48:35;;;;;;;;;;;;;;;;;;4369105;32;19965;-96
2021/05/20 05:51:11;;;;;;;;;;;;;;;;;;4377720;32;20069;-96
2021/05/20 05:53:51;;;;;;;;;;;;;;;;;;4395497;32;20347;-96
2021/05/20 05:56:32;;;;;;;;;;;;;;;;;;4404630;32;20039;-96
2021/05/20 05:59:17;;;;;;;;;;;;;;;;;;4408723;32;20134;-96
2021/05/20 06:02:11;;;;;;;;;;;;;;;;;;4411857;32;19999;-96
2021/05/20 06:05:26;;;;;;;;;;;;;;;;;;4412066;32;19952;-96
2021/05/20 06:08:45;;;;;;;;;;;;;;;;;;4399070;32;19989;-96
2021/05/20 06:11:48;;;;;;;;;;;;;;;;;;4421606;32;19954;-95
2021/05/20 06:14:41;;;;;;;;;;;;;;;;;;;;;
2021/05/20 06:17:29;;;;;;;;;;;;;;;;;;4439157;32;19995;-96
2021/05/20 06:20:16;;;;;;;;;;;;;;;;;;4419713;32;19962;-95
2021/05/20 06:23:06;;;;;;;;;;;;;;;;;;4398927;32;19951;-95
2021/05/20 06:25:40;;;;;;;;;;;;;;;;;;4406698;32;19960;-96
2021/05/20 06:28:39;;;;;;;;;;;;;;;;;;4386161;32;19988;-96
2021/05/20 06:31:14;;;;;;;;;;;;;;;;;;4395587;32;20385;-96
2021/05/20 06:33:55;;;;;;;;;;;;;;;;;;4400864;32;19939;-96
2021/05/20 06:36:39;;;;;;;;;;;;;;;;;;4411767;32;19957;-95
2021/05/20 06:39:13;;;;;;;;;;;;;;;;;;4409645;32;19981;-96
2021/05/20 06:41:56;;;;;;;;;;;;;;;;;;4410346;32;19958;-96
2021/05/20 06:44:39;;;;;;;;;;;;;;;;;;4407035;32;19972;-96
2021/05/20 06:47:15;;;;;;;;;;;;;;;;;;4403190;32;20005;-95
2021/05/20 06:49:51;;;;;;;;;;;;;;;;;;4412954;32;19953;-96
2021/05/20 06:52:25;;;;;;;;;;;;;;;;;;4407746;32;20289;-96
2021/05/20 06:55:03;;;;;;;;;;;;;;;;;;4412948;32;19953;-96
2021/05/20 07:00:43;;;;;;;;;;;;;;;;;;4416842;32;19958;-96
2021/05/20 07:03:26;;;;;;;;;;;;;;;;;;4410046;32;19942;-96
2021/05/20 07:06:19;;;;;;;;;;;;;;;;;;4407518;32;20033;-96
2021/05/20 07:08:52;;;;;;;;;;;;;;;;;;4405868;32;19983;-96
2021/05/20 07:11:36;;;;;;;;;;;;;;;;;;4411672;32;19980;-96
2021/05/20 07:14:32;;;;;;;;;;;;;;;;;;4418964;32;20351;-96
2021/05/20 07:17:29;;;;;;;;;;;;;;;;;;4420287;32;19954;-96
2021/05/20 07:24:14;;;;;;;;;;;;;;;;;;4375555;32;19986;-96
2021/05/20 07:27:22;;;;;;;;;;;;;;;;;;4371852;32;19964;-96
2021/05/20 07:30:12;;;;;;;;;;;;;;;;;;4367298;32;19970;-96
2021/05/20 07:33:21;;;;;;;;;;;;;;;;;;4375357;32;19998;-96
2021/05/20 07:36:36;;;;;;;;;;;;;;;;;;4362211;32;19989;-95
2021/05/20 07:39:28;;;;;;;;;;;;;;;;;;4376445;32;19959;-96
2021/05/20 07:45:11;;;;;;;;;;;;;;;;;;4416456;32;20027;-96
2021/05/20 07:48:50;;;;;;;;;;;;;;;;;;4412402;32;20022;-96
2021/05/20 07:52:11;;;;;;;;;;;;;;;;;;4411084;32;19983;-96
2021/05/20 07:58:25;;;;;;;;;;;;;;;;;;4409520;32;20306;-96
2021/05/20 08:01:09;;;;;;;;;;;;;;;;;;4412253;32;20021;-96
2021/05/20 08:03:49;;;;;;;;;;;;;;;;;;4398503;32;19988;-96
2021/05/20 08:06:41;;;;;;;;;;;;;;;;;;4418143;32;19968;-95
2021/05/20 08:10:08;;;;;;;;;;;;;;;;;;4423402;32;19989;-96
2021/05/20 08:19:07;;;;;;;;;;;;;;;;;;4409853;32;19968;-96
2021/05/20 08:21:36;;;;;;;;;;;;;;;;;;4390514;32;19955;-95
2021/05/20 08:24:07;;;;;;;;;;;;;;;;;;4386032;32;19996;-95
2021/05/20 08:26:36;;;;;;;;;;;;;;;;;;4390577;32;20010;-96
2021/05/20 08:29:05;;;;;;;;;;;;;;;;;;4391147;32;19958;-96
2021/05/20 08:31:40;;;;;;;;;;;;;;;;;;4396702;32;19993;-96
2021/05/20 08:34:15;;;;;;;;;;;;;;;;;;4387177;32;20510;-94
2021/05/20 08:36:46;;;;;;;;;;;;;;;;;;4388608;32;20338;-96
2021/05/20 08:39:15;;;;;;;;;;;;;;;;;;4393288;32;19945;-94
2021/05/20 08:41:47;;;;;;;;;;;;;;;;;;4393680;32;19954;-96
2021/05/20 08:44:26;;;;;;;;;;;;;;;;;;4390285;32;20315;-95
2021/05/20 08:47:33;;;;;;;;;;;;;;;;;;4391231;32;19954;-95
2021/05/20 08:50:07;;;;;;;;;;;;;;;;;;4400444;32;20302;-95
2021/05/20 08:52:46;;;;;;;;;;;;;;;;;;4390878;32;19963;-95
2021/05/20 08:55:21;;;;;;;;;;;;;;;;;;4396157;32;20597;-95
2021/05/20 08:57:59;;;;;;;;;;;;;;;;;;4395755;32;19966;-96
2021/05/20 09:00:48;;;;;;;;;;;;;;;;;;4388413;32;19976;-96
2021/05/20 09:03:27;;;;;;;;;;;;;;;;;;4396218;32;19953;-94
2021/05/20 09:06:09;;;;;;;;;;;;;;;;;;4392272;32;19962;-95
2021/05/20 09:08:39;;;;;;;;;;;;;;;;;;4388886;32;19954;-96
2021/05/20 09:11:12;;;;;;;;;;;;;;;;;;4404008;32;20260;-95
2021/05/20 09:13:46;;;;;;;;;;;;;;;;;;4394803;32;19953;-94
2021/05/20 09:16:22;;;;;;;;;;;;;;;;;;4398170;32;20413;-95
2021/05/20 09:18:59;;;;;;;;;;;;;;;;;;4384883;32;20006;-95
2021/05/20 09:21:33;;;;;;;;;;;;;;;;;;4397136;32;19995;-96
2021/05/20 09:24:09;;;;;;;;;;;;;;;;;;4395345;32;20161;-96
2021/05/20 09:26:42;;;;;;;;;;;;;;;;;;4393792;32;20347;-95
2021/05/20 09:29:13;;;;;;;;;;;;;;;;;;4387337;32;19988;-95
2021/05/20 09:31:47;;;;;;;;;;;;;;;;;;4382871;32;19984;-94
2021/05/20 09:34:18;;;;;;;;;;;;;;;;;;4386963;32;19960;-94
2021/05/20 09:36:53;;;;;;;;;;;;;;;;;;4388870;32;20000;-95
2021/05/20 09:39:24;;;;;;;;;;;;;;;;;;4406163;32;19998;-95
2021/05/20 09:41:55;;;;;;;;;;;;;;;;;;4388550;32;20069;-93
2021/05/20 09:44:29;;;;;;;;;;;;;;;;;;4387438;32;19950;-95
2021/05/20 09:47:03;;;;;;;;;;;;;;;;;;4388148;32;21446;-94
2021/05/20 09:49:35;;;;;;;;;;;;;;;;;;4390331;32;19958;-94
2021/05/20 09:52:11;;;;;;;;;;;;;;;;;;4386825;32;19966;-96
2021/05/20 09:54:54;;;;;;;;;;;;;;;;;;4388442;32;20007;-94
2021/05/20 09:57:25;;;;;;;;;;;;;;;;;;4393801;32;20001;-95
2021/05/20 09:59:56;;;;;;;;;;;;;;;;;;4392967;32;20004;-95
2021/05/20 10:02:30;;;;;;;;;;;;;;;;;;4385762;32;19947;-95
2021/05/20 10:05:02;;;;;;;;;;;;;;;;;;4409598;32;19977;-95
2021/05/20 10:07:35;;;;;;;;;;;;;;;;;;4408808;32;19979;-95
2021/05/20 10:10:24;;;;;;;;;;;;;;;;;;4406417;32;20319;-93
2021/05/20 10:12:55;;;;;;;;;;;;;;;;;;4408630;32;19960;-95
2021/05/20 10:15:31;;;;;;;;;;;;;;;;;;4408778;32;19946;-94
2021/05/20 10:18:02;;;;;;;;;;;;;;;;;;4408751;32;21291;-95
2021/05/20 10:20:35;;;;;;;;;;;;;;;;;;4409023;32;20364;-96
2021/05/20 10:23:09;;;;;;;;;;;;;;;;;;4408870;32;19979;-95
2021/05/20 10:25:41;;;;;;;;;;;;;;;;;;4409151;32;19939;-96
2021/05/20 10:28:14;;;;;;;;;;;;;;;;;;4421441;32;19958;-94
2021/05/20 10:30:43;;;;;;;;;;;;;;;;;;4409178;32;19950;-95
2021/05/20 10:33:17;;;;;;;;;;;;;;;;;;4408740;32;19983;-95
2021/05/20 10:35:46;;;;;;;;;;;;;;;;;;4421754;32;19942;-95
2021/05/20 10:38:16;;;;;;;;;;;;;;;;;;4408816;32;19965;-95
2021/05/20 10:40:48;;;;;;;;;;;;;;;;;;4381977;32;19969;-95
2021/05/20 10:43:21;;;;;;;;;;;;;;;;;;4374441;32;19955;-94
2021/05/20 10:45:53;;;;;;;;;;;;;;;;;;4398972;32;19958;-95
2021/05/20 10:48:24;;;;;;;;;;;;;;;;;;4381472;32;20018;-95
2021/05/20 10:50:56;;;;;;;;;;;;;;;;;;4380243;32;20273;-95
2021/05/20 10:53:24;;;;;;;;;;;;;;;;;;4389492;32;20017;-94
2021/05/20 10:55:55;;;;;;;;;;;;;;;;;;4382243;32;20350;-94
2021/05/20 10:58:28;;;;;;;;;;;;;;;;;;4382436;32;19954;-95
2021/05/20 11:01:00;;;;;;;;;;;;;;;;;;4373822;32;19982;-96
2021/05/20 11:03:28;;;;;;;;;;;;;;;;;;4373718;32;19954;-96
2021/05/20 11:06:06;;;;;;;;;;;;;;;;;;4385432;32;19958;-95
2021/05/20 11:08:36;;;;;;;;;;;;;;;;;;4391535;32;20157;-95
2021/05/20 11:11:14;;;;;;;;;;;;;;;;;;4400977;32;19970;-95
2021/05/20 11:13:46;;;;;;;;;;;;;;;;;;4401335;32;19954;-95
2021/05/20 11:16:17;;;;;;;;;;;;;;;;;;4399343;32;20383;-95
2021/05/20 11:18:51;;;;;;;;;;;;;;;;;;4379760;32;19986;-96
2021/05/20 11:21:30;;;;;;;;;;;;;;;;;;4397572;32;19954;-96
2021/05/20 11:24:15;;;;;;;;;;;;;;;;;;4410342;32;19962;-96
2021/05/20 11:27:03;;;;;;;;;;;;;;;;;;4415965;32;20395;-96
2021/05/20 11:29:34;;;;;;;;;;;;;;;;;;4420505;32;19930;-95
2021/05/20 11:35:14;;;;;;;;;;;;;;;;;;4391424;32;20085;-95
2021/05/20 11:37:46;;;;;;;;;;;;;;;;;;4388475;32;20018;-96
2021/05/20 11:40:17;;;;;;;;;;;;;;;;;;4394018;32;19955;-94
2021/05/20 11:42:51;;;;;;;;;;;;;;;;;;4397055;32;19954;-96
2021/05/20 11:45:20;;;;;;;;;;;;;;;;;;4398519;32;20348;-94
2021/05/20 11:47:55;;;;;;;;;;;;;;;;;;4387691;32;19958;-95
2021/05/20 11:50:38;;;;;;;;;;;;;;;;;;4395980;32;19964;-96
2021/05/20 11:53:16;;;;;;;;;;;;;;;;;;4395925;32;19946;-96
2021/05/20 11:55:47;;;;;;;;;;;;;;;;;;4392082;32;19964;-94
2021/05/20 11:58:20;;;;;;;;;;;;;;;;;;4399997;32;20001;-95
2021/05/20 12:00:56;;;;;;;;;;;;;;;;;;4390013;32;20057;-96
2021/05/20 12:03:47;;;;;;;;;;;;;;;;;;4382427;32;19996;-96
2021/05/20 12:06:18;;;;;;;;;;;;;;;;;;4383687;32;19954;-96
2021/05/20 12:08:49;;;;;;;;;;;;;;;;;;4385097;32;19993;-95
2021/05/20 12:11:18;;;;;;;;;;;;;;;;;;4391928;32;20364;-96
2021/05/20 12:14:15;;;;;;;;;;;;;;;;;;4405993;32;19990;-95
2021/05/20 12:16:43;;;;;;;;;;;;;;;;;;4387553;32;19954;-96
2021/05/20 12:19:28;;;;;;;;;;;;;;;;;;4398028;32;19943;-96
2021/05/20 12:22:00;;;;;;;;;;;;;;;;;;4381389;32;19977;-96
2021/05/20 12:24:29;;;;;;;;;;;;;;;;;;4387407;32;19969;-94
2021/05/20 12:27:03;;;;;;;;;;;;;;;;;;4395882;32;19953;-94
2021/05/20 12:29:42;;;;;;;;;;;;;;;;;;4389525;32;20007;-95
2021/05/20 12:32:21;;;;;;;;;;;;;;;;;;4390310;32;19964;-94
2021/05/20 12:35:05;;;;;;;;;;;;;;;;;;4380478;32;19957;-96
2021/05/20 12:37:39;;;;;;;;;;;;;;;;;;4400425;32;20000;-94
2021/05/20 12:40:14;;;;;;;;;;;;;;;;;;4395860;32;20896;-96
2021/05/20 12:42:48;;;;;;;;;;;;;;;;;;4385225;32;20373;-94
2021/05/20 12:45:22;;;;;;;;;;;;;;;;;;4387068;32;20001;-96
2021/05/20 12:47:54;;;;;;;;;;;;;;;;;;4379463;32;20022;-95
2021/05/20 12:50:27;;;;;;;;;;;;;;;;;;4383886;32;20418;-96
2021/05/20 12:53:09;;;;;;;;;;;;;;;;;;4385308;32;20027;-94
2021/05/20 12:55:44;;;;;;;;;;;;;;;;;;4388709;32;20092;-93
2021/05/20 12:58:17;;;;;;;;;;;;;;;;;;4397658;32;20707;-95
2021/05/20 13:00:50;;;;;;;;;;;;;;;;;;4384775;32;19961;-95
2021/05/20 13:03:30;;;;;;;;;;;;;;;;;;4390624;32;19965;-96
2021/05/20 13:06:02;;;;;;;;;;;;;;;;;;4388473;32;19955;-94
2021/05/20 13:08:31;;;;;;;;;;;;;;;;;;4388031;32;20405;-95
2021/05/20 13:11:00;;;;;;;;;;;;;;;;;;4388299;32;19981;-95
2021/05/20 13:13:40;;;;;;;;;;;;;;;;;;4389312;32;19947;-94
2021/05/20 13:16:32;;;;;;;;;;;;;;;;;;4395166;32;20047;-95
2021/05/20 13:19:24;;;;;;;;;;;;;;;;;;4381465;32;19954;-93
2021/05/20 13:24:47;;;;;;;;;;;;;;;;;;4378849;32;20001;-94
2021/05/20 13:27:26;;;;;;;;;;;;;;;;;;4388558;32;19973;-92
2021/05/20 13:30:05;;;;;;;;;;;;;;;;;;4397957;32;19963;-94
2021/05/20 13:32:51;;;;;;;;;;;;;;;;;;4402054;32;20388;-96
2021/05/20 13:35:22;;;;;;;;;;;;;;;;;;4391503;32;19952;-96
2021/05/20 13:37:57;;;;;;;;;;;;;;;;;;4400864;32;21036;-96
2021/05/20 13:40:34;;;;;;;;;;;;;;;;;;4392967;32;20002;-96
2021/05/20 13:43:38;;;;;;;;;;;;;;;;;;4389264;32;19958;-96
2021/05/20 13:46:17;;;;;;;;;;;;;;;;;;4391627;32;19965;-96
2021/05/20 13:49:20;;;;;;;;;;;;;;;;;;4394644;32;19984;-96
2021/05/20 13:52:21;;;;;;;;;;;;;;;;;;4399594;32;19986;-96
2021/05/20 13:55:18;;;;;;;;;;;;;;;;;;4399363;32;20317;-96
2021/05/20 13:58:03;;;;;;;;;;;;;;;;;;4385164;32;19969;-96
2021/05/20 14:01:00;;;;;;;;;;;;;;;;;;4386118;32;19965;-96
2021/05/20 14:03:37;;;;;;;;;;;;;;;;;;4382206;32;19965;-96
2021/05/20 14:06:17;;;;;;;;;;;;;;;;;;4393040;32;19951;-96
2021/05/20 14:09:00;;;;;;;;;;;;;;;;;;4390819;32;20028;-96
2021/05/20 14:11:45;;;;;;;;;;;;;;;;;;4375544;32;19957;-96
2021/05/20 14:14:27;;;;;;;;;;;;;;;;;;4408064;32;19996;-96
2021/05/20 14:17:26;;;;;;;;;;;;;;;;;;4387737;32;20380;-96
2021/05/20 14:20:16;;;;;;;;;;;;;;;;;;4371650;32;19978;-96
2021/05/20 14:22:45;;;;;;;;;;;;;;;;;;4363123;32;19989;-96
2021/05/20 14:25:14;;;;;;;;;;;;;;;;;;4372706;32;20061;-96
2021/05/20 14:27:42;;;;;;;;;;;;;;;;;;4367720;32;20244;-95
2021/05/20 14:30:11;;;;;;;;;;;;;;;;;;4368677;32;20033;-96
2021/05/20 14:32:45;;;;;;;;;;;;;;;;;;4373403;32;20332;-96
2021/05/20 14:35:16;;;;;;;;;;;;;;;;;;4376054;32;20719;-96
2021/05/20 14:37:44;;;;;;;;;;;;;;;;;;4368665;32;20073;-96
2021/05/20 14:40:19;;;;;;;;;;;;;;;;;;4373657;32;20354;-96
2021/05/20 14:42:49;;;;;;;;;;;;;;;;;;4363245;32;19998;-96
2021/05/20 14:45:26;;;;;;;;;;;;;;;;;;4363437;32;20656;-96
2021/05/20 14:47:56;;;;;;;;;;;;;;;;;;4370109;32;20351;-96
2021/05/20 14:50:30;;;;;;;;;;;;;;;;;;4364187;32;19978;-95
2021/05/20 14:53:10;;;;;;;;;;;;;;;;;;4361452;32;19973;-96
2021/05/20 15:06:47;;;;;;;;;;;;;;;;;;4372456;32;19989;-96
2021/05/20 15:09:38;;;;;;;;;;;;;;;;;;4368040;32;20026;-95
2021/05/20 15:17:25;;;;;;;;;;;;;;;;;;4395012;32;19962;-95
2021/05/20 15:19:56;;;;;;;;;;;;;;;;;;4373035;32;19993;-96
2021/05/20 15:22:39;;;;;;;;;;;;;;;;;;4394827;32;19962;-96
2021/05/20 15:25:07;;;;;;;;;;;;;;;;;;4384757;32;19951;-96
2021/05/20 15:27:39;;;;;;;;;;;;;;;;;;4382813;32;19974;-96
2021/05/20 15:30:07;;;;;;;;;;;;;;;;;;4389528;32;19955;-96
2021/05/20 15:32:38;;;;;;;;;;;;;;;;;;4383789;32;21376;-96
2021/05/20 15:35:07;;;;;;;;;;;;;;;;;;4380429;32;20003;-95
2021/05/20 15:37:39;;;;;;;;;;;;;;;;;;4374532;32;19942;-96
2021/05/20 15:40:09;;;;;;;;;;;;;;;;;;4378047;32;19958;-96
2021/05/20 15:42:39;;;;;;;;;;;;;;;;;;4380056;32;20002;-96
2021/05/20 15:45:09;;;;;;;;;;;;;;;;;;4409734;32;20006;-96
2021/05/20 15:47:50;;;;;;;;;;;;;;;;;;4375541;32;19951;-95
2021/05/20 15:50:24;;;;;;;;;;;;;;;;;;4390749;32;19974;-96
2021/05/20 15:52:55;;;;;;;;;;;;;;;;;;4388552;32;20014;-96
2021/05/20 15:55:26;;;;;;;;;;;;;;;;;;4376414;32;20390;-96
2021/05/20 15:57:55;;;;;;;;;;;;;;;;;;4380585;32;19962;-96
2021/05/20 16:00:23;;;;;;;;;;;;;;;;;;4378020;32;20780;-95
2021/05/20 16:02:56;;;;;;;;;;;;;;;;;;4380324;32;20737;-96
2021/05/20 16:05:28;;;;;;;;;;;;;;;;;;4380350;32;20294;-96
2021/05/20 16:08:21;;;;;;;;;;;;;;;;;;4379344;32;19990;-96
2021/05/20 16:15:56;;;;;;;;;;;;;;;;;;4389446;32;20001;-96
2021/05/20 16:18:29;;;;;;;;;;;;;;;;;;4381397;32;19998;-96
2021/05/20 16:20:57;;;;;;;;;;;;;;;;;;4392447;32;19958;-95
2021/05/20 16:23:55;;;;;;;;;;;;;;;;;;4381449;32;20404;-96
2021/05/20 16:37:16;;;;;;;;;;;;;;;;;;4390274;32;19986;-96
2021/05/20 16:39:49;;;;;;;;;;;;;;;;;;4379755;32;20003;-96
2021/05/20 16:42:17;;;;;;;;;;;;;;;;;;4375000;32;19966;-96
2021/05/20 16:44:48;;;;;;;;;;;;;;;;;;4379172;32;20028;-95
2021/05/20 16:47:22;;;;;;;;;;;;;;;;;;4383712;32;19986;-96
2021/05/20 16:49:53;;;;;;;;;;;;;;;;;;4373890;32;20436;-95
2021/05/20 16:52:21;;;;;;;;;;;;;;;;;;4374755;32;20023;-95
2021/05/20 16:55:05;;;;;;;;;;;;;;;;;;4380635;32;19990;-96
2021/05/20 17:00:24;;;;;;;;;;;;;;;;;;4406207;32;20509;-96
2021/05/20 17:02:55;;;;;;;;;;;;;;;;;;4382018;32;19954;-96
2021/05/20 17:05:24;;;;;;;;;;;;;;;;;;4382413;32;19996;-96
2021/05/20 17:07:55;;;;;;;;;;;;;;;;;;4385354;32;20053;-96
2021/05/20 17:10:24;;;;;;;;;;;;;;;;;;4408887;32;19965;-96
2021/05/20 17:12:52;;;;;;;;;;;;;;;;;;4383970;32;19963;-96
2021/05/20 17:15:20;;;;;;;;;;;;;;;;;;4380174;32;19959;-96
2021/05/20 17:17:51;;;;;;;;;;;;;;;;;;4390116;32;20450;-96
2021/05/20 17:20:19;;;;;;;;;;;;;;;;;;4394521;32;19958;-96
2021/05/20 17:22:50;;;;;;;;;;;;;;;;;;4387464;32;20821;-95
2021/05/20 17:25:21;;;;;;;;;;;;;;;;;;4383486;32;20010;-96
2021/05/20 17:27:51;;;;;;;;;;;;;;;;;;4389462;32;19955;-96
2021/05/20 17:30:20;;;;;;;;;;;;;;;;;;4398284;32;19958;-95
2021/05/20 17:32:49;;;;;;;;;;;;;;;;;;4393824;32;19981;-96
2021/05/20 17:35:19;;;;;;;;;;;;;;;;;;4380648;32;19990;-96
2021/05/20 17:37:50;;;;;;;;;;;;;;;;;;4389984;32;20594;-95
2021/05/20 17:40:21;;;;;;;;;;;;;;;;;;4382074;32;19962;-96
2021/05/20 17:42:52;;;;;;;;;;;;;;;;;;4376027;32;19978;-96
2021/05/20 17:45:20;;;;;;;;;;;;;;;;;;4384191;32;19983;-96
2021/05/20 17:47:52;;;;;;;;;;;;;;;;;;4389904;32;20334;-96
2021/05/20 17:50:24;;;;;;;;;;;;;;;;;;4379223;32;19986;-96
2021/05/20 17:52:53;;;;;;;;;;;;;;;;;;4383109;32;20028;-96
2021/05/20 17:55:24;;;;;;;;;;;;;;;;;;4382323;32;20041;-95
2021/05/20 17:57:52;;;;;;;;;;;;;;;;;;4405855;32;20001;-96
2021/05/20 18:00:23;;;;;;;;;;;;;;;;;;4381130;32;20382;-95
2021/05/20 18:02:56;;;;;;;;;;;;;;;;;;4396692;32;19954;-95
2021/05/20 18:05:26;;;;;;;;;;;;;;;;;;4389600;32;20577;-95
2021/05/20 18:07:58;;;;;;;;;;;;;;;;;;4382807;32;20546;-95
2021/05/20 18:10:33;;;;;;;;;;;;;;;;;;4382628;32;20341;-96
2021/05/20 18:13:50;;;;;;;;;;;;;;;;;;4386404;32;20044;-95
2021/05/20 18:16:09;;;;;;;;;;;;;;;;;;4392620;32;19950;-96
2021/05/20 18:24:22;;;;;;;;;;;;;;;;;;4394880;32;19978;-95
2021/05/20 18:26:53;;;;;;;;;;;;;;;;;;4391211;32;19962;-96
2021/05/20 18:29:26;;;;;;;;;;;;;;;;;;4384873;32;19997;-95
2021/05/20 18:32:00;;;;;;;;;;;;;;;;;;4374718;32;20350;-96
2021/05/20 18:34:32;;;;;;;;;;;;;;;;;;4379560;32;19964;-96
2021/05/20 18:37:08;;;;;;;;;;;;;;;;;;4387059;32;19958;-95
2021/05/20 18:39:49;;;;;;;;;;;;;;;;;;4407190;32;19998;-96
2021/05/20 18:42:26;;;;;;;;;;;;;;;;;;4388297;32;20301;-96
2021/05/20 18:45:03;;;;;;;;;;;;;;;;;;4380695;32;20010;-95
2021/05/20 18:47:32;;;;;;;;;;;;;;;;;;4381859;32;19962;-96
2021/05/20 18:50:06;;;;;;;;;;;;;;;;;;4386475;32;20351;-95
2021/05/20 18:52:37;;;;;;;;;;;;;;;;;;4389366;32;20045;-96
2021/05/20 18:55:09;;;;;;;;;;;;;;;;;;4399236;32;19949;-96
2021/05/20 18:57:40;;;;;;;;;;;;;;;;;;4385337;32;19960;-96
2021/05/20 19:00:11;;;;;;;;;;;;;;;;;;4389279;32;20005;-95
2021/05/20 19:02:47;;;;;;;;;;;;;;;;;;4379621;32;19958;-96
2021/05/20 19:05:21;;;;;;;;;;;;;;;;;;4375847;32;19962;-96